Time;durP1;ratioP1;P1;durP2;ratioP2;P2;SDS_P1;SDS_P2;PMS_P1;PMS_P2;Temp;Humidity;BMP_temperature;BMP_pressure;BME280_temperature;BME280_humidity;BME280_pressure;Samples;Min_cycle;Max_cycle;Signal;HPM_P1;HPM_P2
2023/03/06 00:01:40;;;;;;;16.50;12.10;;;5.80;99.90;;;;;;4205772;28;20112;-83
2023/03/06 00:04:00;;;;;;;19.23;15.13;;;6.00;99.90;;;;;;4178655;28;20300;-84
2023/03/06 00:06:21;;;;;;;21.73;15.63;;;6.10;99.90;;;;;;4190827;28;20063;-83
2023/03/06 00:08:41;;;;;;;19.98;15.30;;;6.00;99.90;;;;;;4207039;28;20044;-83
2023/03/06 00:11:02;;;;;;;17.27;15.27;;;6.00;99.90;;;;;;4207853;28;20340;-83
2023/03/06 00:13:23;;;;;;;18.27;13.98;;;5.90;99.90;;;;;;4190177;28;20099;-83
2023/03/06 00:15:43;;;;;;;20.05;14.77;;;5.90;99.90;;;;;;4192218;28;20052;-83
2023/03/06 00:18:04;;;;;;;21.13;14.40;;;5.80;99.90;;;;;;4186766;28;20047;-83
2023/03/06 00:20:25;;;;;;;15.25;13.70;;;5.90;99.90;;;;;;4192645;28;20055;-84
2023/03/06 00:22:47;;;;;;;16.92;14.55;;;6.00;99.90;;;;;;4191970;28;20151;-83
2023/03/06 00:25:11;;;;;;;13.85;12.55;;;6.10;99.90;;;;;;4190771;28;20379;-83
2023/03/06 00:27:34;;;;;;;22.23;13.48;;;6.10;99.90;;;;;;4192671;28;20082;-83
2023/03/06 00:29:55;;;;;;;20.33;14.75;;;6.30;99.90;;;;;;4189318;28;20405;-83
2023/03/06 00:32:16;;;;;;;18.85;14.10;;;6.10;99.90;;;;;;4207384;28;20050;-83
2023/03/06 00:34:36;;;;;;;15.63;12.93;;;6.00;99.90;;;;;;4191471;28;20071;-84
2023/03/06 00:36:56;;;;;;;16.92;13.30;;;5.90;99.90;;;;;;4207577;28;20051;-84
2023/03/06 00:39:16;;;;;;;14.07;12.77;;;6.10;99.90;;;;;;4204001;28;20044;-85
2023/03/06 00:41:35;;;;;;;16.67;14.07;;;6.20;99.90;;;;;;4207598;28;20055;-83
2023/03/06 00:43:55;;;;;;;15.05;13.68;;;6.00;99.90;;;;;;4192418;28;20466;-83
2023/03/06 00:46:15;;;;;;;20.02;13.75;;;5.90;99.90;;;;;;4192360;28;20048;-83
2023/03/06 00:48:34;;;;;;;14.45;12.80;;;5.90;99.90;;;;;;4181935;28;20641;-83
2023/03/06 00:50:54;;;;;;;19.67;13.60;;;5.80;99.90;;;;;;4205354;28;20097;-83
2023/03/06 00:53:14;;;;;;;15.40;13.50;;;5.60;99.90;;;;;;4206846;28;20056;-83
2023/03/06 00:55:33;;;;;;;22.17;15.40;;;5.50;99.90;;;;;;4190578;28;20048;-83
2023/03/06 00:57:54;;;;;;;25.48;16.48;;;5.40;99.90;;;;;;4181429;28;20236;-84
2023/03/06 01:00:14;;;;;;;19.27;14.73;;;5.40;99.90;;;;;;4206925;28;20077;-83
2023/03/06 01:02:37;;;;;;;20.55;15.68;;;5.50;99.90;;;;;;4192335;28;20111;-83
2023/03/06 01:04:56;;;;;;;22.80;16.75;;;5.60;99.90;;;;;;4207266;28;20059;-83
2023/03/06 01:07:16;;;;;;;19.30;17.00;;;5.70;99.90;;;;;;4189690;28;20094;-83
2023/03/06 01:09:36;;;;;;;18.33;16.40;;;5.70;99.90;;;;;;4205663;28;20075;-83
2023/03/06 01:11:57;;;;;;;19.33;16.77;;;5.80;99.90;;;;;;4191938;28;20056;-83
2023/03/06 01:14:20;;;;;;;23.40;17.23;;;5.90;99.90;;;;;;4192068;28;20374;-83
2023/03/06 01:16:41;;;;;;;31.08;17.02;;;5.70;99.90;;;;;;4206052;28;20154;-83
2023/03/06 01:19:01;;;;;;;22.67;16.45;;;5.60;99.90;;;;;;4205154;28;20060;-83
2023/03/06 01:21:21;;;;;;;22.15;17.90;;;5.70;99.90;;;;;;4191614;28;20233;-83
2023/03/06 01:23:41;;;;;;;22.33;16.25;;;5.60;99.90;;;;;;4206866;28;20083;-84
2023/03/06 01:26:02;;;;;;;26.25;16.45;;;5.60;99.90;;;;;;4184627;28;20323;-83
2023/03/06 01:28:22;;;;;;;23.63;16.05;;;5.60;99.90;;;;;;4191822;28;20056;-83
2023/03/06 01:30:42;;;;;;;20.17;17.25;;;5.70;99.90;;;;;;4206864;28;20094;-83
2023/03/06 01:33:02;;;;;;;21.55;17.45;;;5.70;99.90;;;;;;4190869;28;20366;-83
2023/03/06 01:35:21;;;;;;;35.20;18.88;;;5.60;99.90;;;;;;4189640;28;20379;-83
2023/03/06 01:37:41;;;;;;;23.55;18.52;;;5.70;99.90;;;;;;4206199;28;20108;-84
2023/03/06 01:40:02;;;;;;;24.42;17.25;;;5.90;99.90;;;;;;4206677;28;20438;-83
2023/03/06 01:42:24;;;;;;;26.15;17.95;;;5.90;99.90;;;;;;4206879;28;20067;-83
2023/03/06 01:45:08;;;;;;;24.10;19.13;;;5.90;99.90;;;;;;4203080;28;20044;-83
2023/03/06 01:47:28;;;;;;;22.60;17.02;;;5.80;99.90;;;;;;4204908;28;20047;-83
2023/03/06 01:49:48;;;;;;;22.85;16.48;;;5.70;99.90;;;;;;4190538;28;20413;-83
2023/03/06 01:52:18;;;;;;;24.02;17.58;;;5.70;99.90;;;;;;4206512;28;20274;-83
2023/03/06 01:54:44;;;;;;;21.80;17.13;;;5.60;99.90;;;;;;4206466;28;20104;-83
2023/03/06 01:57:21;;;;;;;21.83;18.58;;;5.50;99.90;;;;;;4188281;28;20091;-83
2023/03/06 01:59:42;;;;;;;22.92;17.38;;;5.40;99.90;;;;;;4182027;28;20048;-83
2023/03/06 02:02:05;;;;;;;26.23;17.98;;;5.50;99.90;;;;;;4185437;28;20052;-83
2023/03/06 02:04:25;;;;;;;27.40;18.30;;;5.40;99.90;;;;;;4188464;28;20064;-83
2023/03/06 02:06:46;;;;;;;23.15;17.35;;;5.40;99.90;;;;;;4204445;28;20047;-83
2023/03/06 02:09:06;;;;;;;20.55;16.58;;;5.40;99.90;;;;;;4205401;28;20067;-83
2023/03/06 02:11:27;;;;;;;21.73;16.42;;;5.40;99.90;;;;;;4205929;28;20047;-83
2023/03/06 02:13:48;;;;;;;28.73;17.50;;;5.30;99.90;;;;;;4206362;28;20086;-83
2023/03/06 02:16:13;;;;;;;24.75;17.80;;;5.30;99.90;;;;;;4188516;28;20068;-83
2023/03/06 02:18:34;;;;;;;18.95;16.95;;;5.20;99.90;;;;;;4186481;28;20087;-84
2023/03/06 02:20:59;;;;;;;21.23;18.98;;;5.20;99.90;;;;;;4204632;28;20104;-83
2023/03/06 02:23:46;;;;;;;24.48;18.63;;;5.20;99.90;;;;;;4191137;28;20647;-83
2023/03/06 02:26:08;;;;;;;17.55;15.95;;;5.20;99.90;;;;;;4189979;28;20083;-84
2023/03/06 02:28:28;;;;;;;33.35;19.10;;;5.30;99.90;;;;;;4206110;28;20047;-84
2023/03/06 02:30:50;;;;;;;22.67;20.42;;;5.20;99.90;;;;;;4189002;28;20060;-83
2023/03/06 02:33:15;;;;;;;24.42;17.58;;;5.20;99.90;;;;;;4190460;28;20394;-83
2023/03/06 02:35:37;;;;;;;23.75;19.05;;;5.30;99.90;;;;;;4201112;28;20099;-83
2023/03/06 02:38:05;;;;;;;26.57;19.63;;;5.30;99.90;;;;;;4187812;28;20044;-83
2023/03/06 02:40:25;;;;;;;29.17;20.10;;;5.40;99.90;;;;;;4205864;28;20282;-83
2023/03/06 02:42:48;;;;;;;27.08;19.60;;;5.40;99.90;;;;;;4185778;28;20052;-83
2023/03/06 02:45:11;;;;;;;32.13;20.92;;;5.40;99.90;;;;;;4180682;28;20100;-83
2023/03/06 02:47:31;;;;;;;24.10;19.05;;;5.30;99.90;;;;;;4190132;28;20047;-83
2023/03/06 02:49:51;;;;;;;23.40;18.50;;;5.40;99.90;;;;;;4191063;28;20083;-83
2023/03/06 02:52:10;;;;;;;27.73;22.13;;;5.30;99.90;;;;;;4187454;28;20072;-83
2023/03/06 02:54:30;;;;;;;23.60;20.00;;;5.30;99.90;;;;;;4203950;28;20074;-83
2023/03/06 02:56:51;;;;;;;21.30;18.50;;;5.30;99.90;;;;;;4185097;28;20087;-83
2023/03/06 02:59:11;;;;;;;22.60;20.15;;;5.30;99.90;;;;;;4190467;28;20036;-83
2023/03/06 03:01:31;;;;;;;24.15;18.65;;;5.30;99.90;;;;;;4204377;28;20236;-84
2023/03/06 03:03:51;;;;;;;22.73;18.23;;;5.30;99.90;;;;;;4205692;28;20259;-83
2023/03/06 03:06:12;;;;;;;20.90;18.75;;;5.40;99.90;;;;;;4205281;28;20240;-83
2023/03/06 03:08:33;;;;;;;22.17;18.08;;;5.40;99.90;;;;;;4205766;28;20146;-83
2023/03/06 03:10:55;;;;;;;25.25;17.88;;;5.40;99.90;;;;;;4190699;28;20079;-83
2023/03/06 03:13:16;;;;;;;24.33;20.15;;;5.40;99.90;;;;;;4201762;28;20150;-83
2023/03/06 03:15:36;;;;;;;27.40;19.05;;;5.50;99.90;;;;;;4189926;28;20052;-83
2023/03/06 03:17:56;;;;;;;26.23;21.25;;;5.40;99.90;;;;;;4205651;28;20110;-83
2023/03/06 03:20:18;;;;;;;29.67;20.60;;;5.40;99.90;;;;;;4186329;28;20075;-83
2023/03/06 03:22:40;;;;;;;29.92;19.92;;;5.30;99.90;;;;;;4189744;28;20410;-83
2023/03/06 03:25:00;;;;;;;27.20;21.98;;;5.30;99.90;;;;;;4203059;28;20052;-83
2023/03/06 03:27:22;;;;;;;30.30;20.92;;;5.40;99.90;;;;;;4204790;28;20075;-83
2023/03/06 03:29:42;;;;;;;27.98;20.75;;;5.40;99.90;;;;;;4188919;28;20089;-85
2023/03/06 03:32:02;;;;;;;29.17;21.30;;;5.40;99.90;;;;;;4188731;28;20091;-83
2023/03/06 03:34:22;;;;;;;34.85;22.20;;;5.40;99.90;;;;;;4187536;28;20076;-83
2023/03/06 03:36:45;;;;;;;25.25;21.35;;;5.40;99.90;;;;;;4190409;28;20232;-83
2023/03/06 03:39:04;;;;;;;26.35;21.98;;;5.40;99.90;;;;;;4188752;28;20390;-83
2023/03/06 03:41:26;;;;;;;34.72;22.13;;;5.40;99.90;;;;;;4183335;28;20068;-83
2023/03/06 03:43:45;;;;;;;25.38;19.65;;;5.40;99.90;;;;;;4202150;28;20075;-83
2023/03/06 03:46:05;;;;;;;32.33;19.92;;;5.40;99.90;;;;;;4190356;28;20051;-83
2023/03/06 03:48:25;;;;;;;31.25;19.85;;;5.40;99.90;;;;;;4190362;28;20271;-83
2023/03/06 03:50:45;;;;;;;34.45;21.52;;;5.40;99.90;;;;;;4201264;28;20108;-84
2023/03/06 03:53:05;;;;;;;27.85;19.98;;;5.40;99.90;;;;;;4179879;28;20554;-83
2023/03/06 03:55:25;;;;;;;32.53;21.70;;;5.40;99.90;;;;;;4190184;28;20260;-83
2023/03/06 03:58:08;;;;;;;28.15;20.85;;;5.40;99.90;;;;;;4190174;28;20059;-83
2023/03/06 04:00:28;;;;;;;34.88;21.35;;;5.40;99.90;;;;;;4121875;28;20437;-83
2023/03/06 04:02:48;;;;;;;26.02;21.33;;;5.40;99.90;;;;;;4120049;28;20057;-83
2023/03/06 04:05:10;;;;;;;31.40;20.58;;;5.50;99.90;;;;;;4107007;28;20089;-83
2023/03/06 04:07:30;;;;;;;34.00;19.95;;;5.50;99.90;;;;;;4118768;28;20041;-84
2023/03/06 04:09:50;;;;;;;26.63;20.05;;;5.50;99.90;;;;;;4124030;28;20090;-82
2023/03/06 04:12:10;;;;;;;29.85;21.17;;;5.50;99.90;;;;;;4123206;28;20150;-83
2023/03/06 04:14:30;;;;;;;28.60;20.30;;;5.50;99.90;;;;;;4114792;28;20135;-83
2023/03/06 04:16:51;;;;;;;30.45;20.40;;;5.50;99.90;;;;;;4101474;28;20049;-83
2023/03/06 04:19:10;;;;;;;22.50;19.90;;;5.50;99.90;;;;;;4121909;28;20057;-83
2023/03/06 04:21:31;;;;;;;28.08;20.60;;;5.60;99.90;;;;;;4118694;28;20334;-83
2023/03/06 04:23:51;;;;;;;27.75;19.17;;;5.50;99.90;;;;;;4107596;28;20196;-83
2023/03/06 04:26:13;;;;;;;32.15;19.95;;;5.60;99.90;;;;;;4104555;28;20118;-83
2023/03/06 04:28:33;;;;;;;29.90;21.20;;;5.60;99.90;;;;;;4109476;28;20409;-83
2023/03/06 04:30:58;;;;;;;26.15;21.20;;;5.60;99.90;;;;;;4123316;28;20433;-83
2023/03/06 04:33:17;;;;;;;23.98;19.83;;;5.60;99.90;;;;;;4112902;28;20050;-83
2023/03/06 04:35:37;;;;;;;26.73;20.05;;;5.60;99.90;;;;;;4120525;28;20057;-83
2023/03/06 04:37:58;;;;;;;25.00;19.95;;;5.60;99.90;;;;;;4168963;28;20090;-84
2023/03/06 04:40:27;;;;;;;35.97;20.88;;;5.60;99.90;;;;;;4187246;28;20091;-83
2023/03/06 04:42:48;;;;;;;28.70;20.92;;;5.60;99.90;;;;;;4180460;28;20057;-83
2023/03/06 04:45:09;;;;;;;26.85;20.77;;;5.60;99.90;;;;;;4207506;28;20043;-83
2023/03/06 04:47:30;;;;;;;28.25;20.05;;;5.60;99.90;;;;;;4207523;28;20076;-83
2023/03/06 04:49:50;;;;;;;29.27;19.92;;;5.60;99.90;;;;;;4207453;28;20075;-83
2023/03/06 04:52:12;;;;;;;29.70;22.00;;;5.60;99.90;;;;;;4207256;28;20089;-83
2023/03/06 04:54:32;;;;;;;24.17;19.30;;;5.50;99.90;;;;;;4192194;28;20078;-83
2023/03/06 04:56:51;;;;;;;23.85;19.65;;;5.50;99.90;;;;;;4189397;28;20048;-83
2023/03/06 04:59:11;;;;;;;24.98;19.13;;;5.50;99.90;;;;;;4181446;28;20083;-83
2023/03/06 05:01:32;;;;;;;30.13;17.60;;;5.40;99.90;;;;;;4189240;28;20336;-83
2023/03/06 05:03:52;;;;;;;26.58;19.17;;;5.40;99.90;;;;;;4192051;28;20099;-85
2023/03/06 05:06:12;;;;;;;29.38;19.75;;;5.50;99.90;;;;;;4191580;28;20040;-83
2023/03/06 05:08:31;;;;;;;24.98;18.55;;;5.40;99.90;;;;;;4190766;28;20052;-83
2023/03/06 05:10:59;;;;;;;30.02;19.73;;;5.40;99.90;;;;;;4202286;28;20244;-83
2023/03/06 05:13:19;;;;;;;24.75;19.40;;;5.50;99.90;;;;;;4206467;28;20051;-82
2023/03/06 05:15:41;;;;;;;30.25;21.10;;;5.50;99.90;;;;;;4205469;28;20051;-82
2023/03/06 05:18:01;;;;;;;26.70;21.52;;;5.50;99.90;;;;;;4185930;28;20083;-83
2023/03/06 05:20:21;;;;;;;27.77;20.13;;;5.50;99.90;;;;;;4188140;28;20090;-82
2023/03/06 05:22:44;;;;;;;50.30;21.30;;;5.50;99.90;;;;;;4191941;28;20090;-83
2023/03/06 05:25:05;;;;;;;26.93;19.80;;;5.50;99.90;;;;;;4186215;28;20051;-83
2023/03/06 05:27:27;;;;;;;23.42;19.20;;;5.50;99.90;;;;;;4189467;28;20048;-83
2023/03/06 05:29:47;;;;;;;38.50;19.90;;;5.50;99.90;;;;;;4203224;28;20044;-84
2023/03/06 05:32:08;;;;;;;23.20;17.48;;;5.50;99.90;;;;;;4185175;28;20083;-82
2023/03/06 05:34:28;;;;;;;30.20;20.42;;;5.50;99.90;;;;;;4186677;28;20067;-83
2023/03/06 05:37:14;;;;;;;23.95;18.17;;;5.50;99.90;;;;;;4187782;28;20231;-82
2023/03/06 05:39:33;;;;;;;22.88;17.85;;;5.60;99.90;;;;;;4116093;28;20054;-83
2023/03/06 05:41:54;;;;;;;29.95;20.58;;;5.60;99.90;;;;;;4121005;28;20333;-83
2023/03/06 05:44:14;;;;;;;26.73;19.08;;;5.60;99.90;;;;;;4119636;28;20466;-83
2023/03/06 05:46:34;;;;;;;32.83;19.40;;;5.70;99.90;;;;;;4105479;28;20050;-83
2023/03/06 05:48:56;;;;;;;36.88;19.20;;;5.80;99.90;;;;;;4109704;28;20062;-84
2023/03/06 05:51:21;;;;;;;22.30;18.48;;;5.70;99.90;;;;;;4119671;28;20045;-84
2023/03/06 05:53:42;;;;;;;22.52;18.50;;;5.80;99.90;;;;;;4100659;29;20163;-83
2023/03/06 05:56:05;;;;;;;26.75;19.08;;;5.80;99.90;;;;;;4122039;28;20081;-83
2023/03/06 05:58:27;;;;;;;21.80;17.67;;;5.80;99.90;;;;;;4120097;28;20089;-83
2023/03/06 06:00:47;;;;;;;29.92;19.60;;;5.80;99.90;;;;;;4123260;28;20065;-83
2023/03/06 06:03:06;;;;;;;32.50;18.20;;;5.80;99.90;;;;;;4120104;28;20222;-83
2023/03/06 06:05:26;;;;;;;27.63;16.85;;;5.90;99.90;;;;;;4116191;28;20050;-83
2023/03/06 06:07:47;;;;;;;23.73;17.45;;;5.80;99.90;;;;;;4106291;28;20082;-83
2023/03/06 06:10:08;;;;;;;27.88;17.08;;;5.80;99.90;;;;;;4117410;28;20053;-83
2023/03/06 06:12:29;;;;;;;18.15;16.42;;;5.80;99.90;;;;;;4121411;28;20396;-83
2023/03/06 06:14:49;;;;;;;28.85;18.67;;;5.80;99.90;;;;;;4122753;28;20110;-83
2023/03/06 06:17:11;;;;;;;27.42;17.67;;;5.90;99.90;;;;;;4170219;28;20068;-83
2023/03/06 06:19:31;;;;;;;24.00;17.30;;;5.90;99.90;;;;;;4199739;28;20432;-84
2023/03/06 06:21:53;;;;;;;20.27;17.13;;;5.80;99.90;;;;;;4202824;28;20052;-83
2023/03/06 06:24:14;;;;;;;21.50;14.98;;;5.80;99.90;;;;;;4206075;28;20075;-84
2023/03/06 06:26:39;;;;;;;21.40;15.45;;;5.90;99.90;;;;;;4206133;28;20051;-82
2023/03/06 06:28:59;;;;;;;22.55;15.95;;;5.90;99.90;;;;;;4182517;28;20386;-86
2023/03/06 06:31:19;;;;;;;23.45;15.55;;;6.00;99.90;;;;;;4189388;28;20118;-86
2023/03/06 06:33:43;;;;;;;22.73;16.23;;;6.10;99.90;;;;;;4190851;28;20147;-86
2023/03/06 06:36:04;;;;;;;21.70;16.10;;;6.20;99.90;;;;;;4191219;28;20048;-86
2023/03/06 06:38:25;;;;;;;22.75;15.27;;;6.40;99.90;;;;;;4189122;28;20488;-86
2023/03/06 06:40:45;;;;;;;27.00;15.88;;;6.40;99.90;;;;;;4205053;28;20078;-87
2023/03/06 06:43:24;;;;;;;18.67;16.00;;;6.40;99.90;;;;;;4192289;28;20231;-86
2023/03/06 06:45:44;;;;;;;24.17;14.95;;;6.50;99.90;;;;;;4190008;28;20052;-87
2023/03/06 06:48:04;;;;;;;24.13;13.98;;;6.40;99.90;;;;;;4189445;28;20113;-86
2023/03/06 06:50:24;;;;;;;20.33;16.38;;;6.40;99.90;;;;;;4190992;28;20091;-86
2023/03/06 06:52:45;;;;;;;19.52;16.00;;;6.50;99.90;;;;;;4190567;28;20387;-86
2023/03/06 06:55:05;;;;;;;17.13;13.93;;;6.50;99.90;;;;;;4190792;28;20112;-86
2023/03/06 06:57:25;;;;;;;21.10;15.32;;;6.50;99.90;;;;;;4205810;28;20274;-86
2023/03/06 06:59:45;;;;;;;16.70;14.77;;;6.50;99.90;;;;;;4190478;28;20059;-86
2023/03/06 07:02:06;;;;;;;21.73;16.23;;;6.60;99.90;;;;;;4189629;28;20111;-86
2023/03/06 07:04:26;;;;;;;17.00;15.40;;;6.50;99.90;;;;;;4178336;28;20048;-87
2023/03/06 07:06:46;;;;;;;17.08;15.32;;;6.60;99.90;;;;;;4205759;28;20362;-87
2023/03/06 07:09:06;;;;;;;17.83;14.95;;;6.60;99.90;;;;;;4180781;28;20113;-86
2023/03/06 07:11:26;;;;;;;20.65;15.15;;;6.60;99.90;;;;;;4205499;28;20326;-86
2023/03/06 07:13:47;;;;;;;15.93;14.07;;;6.60;99.90;;;;;;4180017;28;20094;-86
2023/03/06 07:16:10;;;;;;;15.27;13.93;;;6.70;99.90;;;;;;4190125;28;20075;-86
2023/03/06 07:18:31;;;;;;;20.58;14.60;;;6.70;99.90;;;;;;4203608;28;20059;-86
2023/03/06 07:20:52;;;;;;;17.33;14.05;;;6.80;99.90;;;;;;4189166;28;20378;-86
2023/03/06 07:23:12;;;;;;;17.60;15.35;;;6.80;99.90;;;;;;4204405;28;20044;-87
2023/03/06 07:25:33;;;;;;;16.65;15.18;;;6.80;99.90;;;;;;4204936;28;20048;-86
2023/03/06 07:27:53;;;;;;;26.40;16.52;;;6.80;99.90;;;;;;4202590;28;20271;-86
2023/03/06 07:30:12;;;;;;;18.88;14.85;;;6.80;99.90;;;;;;4189331;28;20036;-55
2023/03/06 07:32:32;;;;;;;24.33;15.32;;;6.80;99.90;;;;;;4187704;28;20063;-54
2023/03/06 07:34:52;;;;;;;25.48;15.75;;;6.80;99.90;;;;;;4191435;28;20052;-54
2023/03/06 07:37:27;;;;;;;19.73;15.75;;;6.90;99.90;;;;;;4189396;28;20040;-54
2023/03/06 07:39:47;;;;;;;18.98;15.57;;;6.80;99.90;;;;;;4184919;28;20047;-54
2023/03/06 07:42:06;;;;;;;21.63;14.65;;;6.80;99.90;;;;;;4199716;28;20089;-54
2023/03/06 07:44:27;;;;;;;16.65;14.00;;;6.80;99.90;;;;;;4191475;28;20064;-54
2023/03/06 07:46:47;;;;;;;19.08;14.00;;;6.80;99.90;;;;;;4196296;28;20043;-55
2023/03/06 07:49:07;;;;;;;20.65;15.60;;;6.80;99.90;;;;;;4191554;28;20239;-54
2023/03/06 07:51:26;;;;;;;21.80;16.38;;;6.70;99.90;;;;;;4192713;28;20052;-54
2023/03/06 07:53:47;;;;;;;22.60;14.98;;;6.80;99.90;;;;;;4191810;28;20048;-54
2023/03/06 07:56:10;;;;;;;16.97;15.33;;;6.80;99.90;;;;;;4191314;28;20302;-54
2023/03/06 07:58:30;;;;;;;24.27;17.13;;;6.70;99.90;;;;;;4192709;28;20047;-55
2023/03/06 08:00:51;;;;;;;24.30;17.15;;;6.80;99.90;;;;;;4195200;28;20079;-54
2023/03/06 08:03:13;;;;;;;18.52;16.42;;;6.80;99.90;;;;;;4191932;28;20390;-54
2023/03/06 08:05:33;;;;;;;24.75;15.73;;;6.80;99.90;;;;;;4190878;28;20044;-54
2023/03/06 08:07:54;;;;;;;16.52;15.07;;;6.90;99.90;;;;;;4192207;28;20382;-55
2023/03/06 08:10:15;;;;;;;19.60;15.73;;;7.00;99.90;;;;;;4193423;28;20266;-54
2023/03/06 08:12:35;;;;;;;18.60;14.40;;;7.00;99.90;;;;;;4192013;28;20047;-54
2023/03/06 08:14:55;;;;;;;17.67;15.38;;;7.00;99.90;;;;;;4190655;28;20079;-54
2023/03/06 08:17:15;;;;;;;16.92;14.40;;;7.10;99.90;;;;;;4194675;28;20389;-54
2023/03/06 08:19:36;;;;;;;21.10;15.00;;;7.10;99.90;;;;;;4210331;28;20051;-54
2023/03/06 08:21:57;;;;;;;15.50;14.27;;;7.10;99.90;;;;;;4208977;28;20365;-54
2023/03/06 08:24:17;;;;;;;20.88;13.90;;;7.10;99.90;;;;;;4207878;28;20385;-54
2023/03/06 08:26:37;;;;;;;15.77;14.20;;;7.10;99.90;;;;;;4212406;28;20086;-54
2023/03/06 08:29:00;;;;;;;17.08;13.80;;;7.20;99.90;;;;;;4209968;28;20280;-54
2023/03/06 08:31:36;;;;;;;15.38;13.80;;;7.20;99.90;;;;;;4208966;28;20354;-54
2023/03/06 08:33:57;;;;;;;17.17;13.45;;;7.20;99.90;;;;;;4206460;28;20039;-54
2023/03/06 08:36:17;;;;;;;14.82;13.43;;;7.30;99.90;;;;;;4211541;28;20051;-54
2023/03/06 08:38:37;;;;;;;15.27;13.77;;;7.40;99.90;;;;;;4216319;28;20043;-54
2023/03/06 08:40:59;;;;;;;16.73;13.30;;;7.40;99.90;;;;;;4207100;28;20079;-55
2023/03/06 08:43:19;;;;;;;17.35;11.85;;;7.60;99.90;;;;;;4209096;28;20047;-54
2023/03/06 08:45:39;;;;;;;16.98;14.82;;;7.70;99.90;;;;;;4224285;28;20050;-54
2023/03/06 08:47:59;;;;;;;15.18;13.63;;;7.80;99.90;;;;;;4207757;28;20286;-55
2023/03/06 08:50:19;;;;;;;15.70;14.23;;;7.90;99.90;;;;;;4209087;28;20066;-54
2023/03/06 08:52:39;;;;;;;13.95;12.95;;;7.90;99.90;;;;;;4208720;28;20059;-54
2023/03/06 08:55:02;;;;;;;16.75;12.75;;;7.90;99.90;;;;;;4206787;28;20377;-54
2023/03/06 08:57:22;;;;;;;12.93;11.38;;;8.10;99.90;;;;;;4208741;28;20047;-54
2023/03/06 08:59:42;;;;;;;17.65;12.35;;;8.60;99.90;;;;;;4207457;28;20115;-55
2023/03/06 09:02:04;;;;;;;15.05;12.60;;;8.70;99.90;;;;;;4210377;28;20047;-55
2023/03/06 09:04:24;;;;;;;22.65;14.75;;;8.70;99.90;;;;;;4190577;28;20162;-54
2023/03/06 09:06:44;;;;;;;13.35;12.18;;;9.10;99.90;;;;;;4214195;28;20051;-55
2023/03/06 09:09:05;;;;;;;17.23;13.80;;;9.10;99.90;;;;;;4206108;28;20075;-54
2023/03/06 09:11:26;;;;;;;17.13;13.80;;;8.90;99.90;;;;;;4219522;28;20118;-54
2023/03/06 09:13:46;;;;;;;17.77;12.63;;;9.30;99.90;;;;;;4208786;28;20066;-55
2023/03/06 09:16:08;;;;;;;21.60;14.27;;;9.40;99.90;;;;;;4207642;28;20230;-54
2023/03/06 09:18:28;;;;;;;17.40;12.27;;;9.50;99.90;;;;;;4206013;28;20059;-55
2023/03/06 09:20:48;;;;;;;12.77;10.75;;;9.60;99.90;;;;;;4208012;28;20052;-54
2023/03/06 09:23:09;;;;;;;14.13;11.88;;;9.50;99.90;;;;;;4212565;28;20105;-55
2023/03/06 09:25:28;;;;;;;12.20;11.10;;;9.30;99.90;;;;;;4206140;28;20085;-54
2023/03/06 09:27:49;;;;;;;15.90;12.75;;;9.10;99.90;;;;;;4208914;28;20366;-54
2023/03/06 09:30:24;;;;;;;13.35;12.00;;;9.20;99.90;;;;;;4207747;28;20035;-55
2023/03/06 09:32:44;;;;;;;18.10;12.75;;;9.70;99.90;;;;;;4208467;28;20044;-54
2023/03/06 09:35:05;;;;;;;11.48;10.15;;;9.50;99.90;;;;;;4207796;28;20063;-54
2023/03/06 09:37:25;;;;;;;12.73;11.48;;;9.70;99.90;;;;;;4207662;28;20074;-55
2023/03/06 09:39:48;;;;;;;13.57;12.20;;;9.80;99.90;;;;;;4209039;28;20075;-55
2023/03/06 09:42:17;;;;;;;15.93;12.32;;;10.00;99.90;;;;;;4207363;28;20089;-55
2023/03/06 09:44:40;;;;;;;12.45;9.95;;;9.90;99.90;;;;;;4205975;28;20050;-55
2023/03/06 09:47:19;;;;;;;12.93;11.05;;;10.10;99.90;;;;;;4208796;28;20426;-55
2023/03/06 09:49:55;;;;;;;15.35;13.13;;;10.30;99.90;;;;;;4205990;28;20242;-54
2023/03/06 09:52:52;;;;;;;10.73;9.93;;;9.80;99.90;;;;;;4208474;28;20052;-55
2023/03/06 09:55:22;;;;;;;12.40;11.27;;;9.70;99.90;;;;;;4207735;28;20048;-55
2023/03/06 09:58:03;;;;;;;14.38;11.35;;;9.30;99.90;;;;;;4207073;28;20039;-55
2023/03/06 10:00:33;;;;;;;13.27;11.32;;;9.40;99.90;;;;;;4207161;28;20048;-55
2023/03/06 10:03:06;;;;;;;12.38;11.20;;;9.40;99.90;;;;;;4207990;28;20063;-55
2023/03/06 10:05:32;;;;;;;;;;;9.50;99.90;;;;;;4207637;28;20090;-55
2023/03/06 10:07:59;;;;;;;13.57;12.32;;;9.50;99.90;;;;;;4205085;28;19924;-54
2023/03/06 10:10:41;;;;;;;14.52;12.73;;;9.50;99.90;;;;;;4207562;28;20143;-55
2023/03/06 10:13:18;;;;;;;12.25;11.32;;;9.40;99.90;;;;;;4179884;28;20275;-54
2023/03/06 10:15:42;;;;;;;20.45;13.35;;;9.50;99.90;;;;;;4211548;28;20112;-55
2023/03/06 10:18:03;;;;;;;16.50;9.95;;;9.60;99.90;;;;;;4200533;28;20425;-55
2023/03/06 10:20:27;;;;;;;11.15;9.82;;;9.70;99.90;;;;;;4209443;28;20038;-55
2023/03/06 10:23:08;;;;;;;13.95;10.93;;;9.80;99.90;;;;;;4207930;28;20043;-55
2023/03/06 10:26:01;;;;;;;11.63;9.13;;;9.90;99.90;;;;;;4206122;28;20177;-54
2023/03/06 10:28:51;;;;;;;12.32;10.55;;;10.00;99.90;;;;;;4173738;28;20433;-54
2023/03/06 10:31:20;;;;;;;8.88;8.00;;;10.00;99.90;;;;;;4173268;28;20056;-55
2023/03/06 10:33:54;;;;;;;8.70;7.55;;;10.00;99.90;;;;;;4173847;28;20128;-55
2023/03/06 10:36:19;;;;;;;9.60;8.88;;;10.10;99.90;;;;;;4171776;28;20056;-54
2023/03/06 10:38:40;;;;;;;12.60;8.73;;;10.20;99.90;;;;;;4170756;28;20048;-54
2023/03/06 10:41:21;;;;;;;7.60;7.15;;;10.10;99.90;;;;;;4172002;28;20044;-55
2023/03/06 10:43:43;;;;;;;9.90;8.48;;;10.20;99.90;;;;;;4170925;28;20048;-55
2023/03/06 10:46:06;;;;;;;9.70;8.82;;;10.30;99.90;;;;;;4171753;28;20045;-55
2023/03/06 10:48:28;;;;;;;7.38;7.03;;;10.30;99.90;;;;;;4171509;28;20084;-54
2023/03/06 10:50:48;;;;;;;12.05;9.75;;;10.30;99.90;;;;;;4171847;28;20413;-55
2023/03/06 10:53:20;;;;;;;9.27;8.45;;;10.30;99.90;;;;;;4172908;28;20079;-55
2023/03/06 10:55:54;;;;;;;8.30;7.65;;;10.40;99.90;;;;;;4171635;28;20393;-55
2023/03/06 10:58:23;;;;;;;7.75;7.28;;;10.20;99.90;;;;;;4171243;28;20455;-55
2023/03/06 11:00:44;;;;;;;9.23;8.70;;;10.20;99.90;;;;;;4170231;28;20045;-55
2023/03/06 11:03:16;;;;;;;7.93;7.47;;;10.20;99.90;;;;;;4175256;28;20082;-55
2023/03/06 11:05:36;;;;;;;10.57;8.13;;;10.20;99.90;;;;;;4199201;28;20087;-54
2023/03/06 11:07:59;;;;;;;8.75;8.05;;;10.20;99.90;;;;;;4206363;28;20044;-59
2023/03/06 11:10:19;;;;;;;10.07;8.48;;;10.20;99.90;;;;;;4206258;28;20386;-55
2023/03/06 11:12:54;;;;;;;9.52;8.68;;;10.10;99.90;;;;;;4205456;28;20087;-54
2023/03/06 11:15:16;;;;;;;9.45;8.40;;;10.10;99.90;;;;;;4207318;28;20043;-54
2023/03/06 11:17:50;;;;;;;10.03;9.00;;;10.00;99.90;;;;;;4209190;28;20112;-55
2023/03/06 11:20:13;;;;;;;8.73;8.23;;;9.90;99.90;;;;;;4209583;28;20635;-54
2023/03/06 11:22:37;;;;;;;11.00;9.38;;;9.90;99.90;;;;;;4207777;28;20056;-55
2023/03/06 11:24:59;;;;;;;10.45;9.68;;;10.00;99.90;;;;;;4209730;28;20048;-55
2023/03/06 11:27:33;;;;;;;11.50;10.40;;;10.00;99.90;;;;;;4208090;28;20298;-54
2023/03/06 11:29:54;;;;;;;8.15;7.72;;;10.00;99.90;;;;;;4210932;28;20151;-54
2023/03/06 11:32:35;;;;;;;10.77;9.93;;;9.90;99.90;;;;;;4209312;28;20082;-55
2023/03/06 11:35:01;;;;;;;14.55;12.90;;;10.00;99.90;;;;;;4208529;28;20139;-54
2023/03/06 11:37:31;;;;;;;10.35;9.70;;;10.10;99.90;;;;;;4208801;28;20354;-54
2023/03/06 11:40:10;;;;;;;12.20;10.85;;;10.00;99.90;;;;;;4209796;28;20373;-54
2023/03/06 11:42:36;;;;;;;11.20;10.48;;;10.00;99.90;;;;;;4212229;28;20052;-55
2023/03/06 11:45:20;;;;;;;11.15;10.13;;;10.20;99.90;;;;;;4209976;28;20039;-55
2023/03/06 11:47:54;;;;;;;11.35;10.43;;;10.40;99.90;;;;;;4208879;28;20357;-54
2023/03/06 11:50:35;;;;;;;14.25;8.32;;;10.50;99.90;;;;;;4206943;28;20044;-54
2023/03/06 11:53:01;;;;;;;8.77;7.90;;;10.50;99.90;;;;;;4208337;28;20071;-55
2023/03/06 11:56:08;;;;;;;10.68;9.60;;;10.50;99.90;;;;;;4215330;28;20378;-54
2023/03/06 11:58:49;;;;;;;7.85;7.35;;;10.60;99.90;;;;;;4176364;28;20087;-54
2023/03/06 12:01:32;;;;;;;9.45;8.63;;;10.60;99.90;;;;;;4207229;28;20269;-54
2023/03/06 12:04:13;;;;;;;8.27;7.60;;;11.10;99.90;;;;;;4173651;28;20423;-55
2023/03/06 12:06:56;;;;;;;7.47;6.88;;;11.40;99.90;;;;;;4174925;28;20382;-54
2023/03/06 12:09:34;;;;;;;8.85;6.07;;;11.50;99.90;;;;;;4174281;28;20087;-54
2023/03/06 12:12:28;;;;;;;5.55;5.15;;;11.40;99.90;;;;;;4173705;28;20096;-54
2023/03/06 12:15:09;;;;;;;5.72;5.28;;;11.40;99.90;;;;;;4151427;28;20048;-54
2023/03/06 12:17:55;;;;;;;4.80;4.50;;;11.40;99.90;;;;;;4173628;28;20136;-54
2023/03/06 12:20:37;;;;;;;7.80;5.10;;;11.80;99.90;;;;;;4174252;28;20064;-55